createdAt,value
2018-08-09T00:00:51.064Z,99.90
2018-08-09T00:03:18.805Z,99.90
2018-08-09T00:05:46.516Z,99.90
2018-08-09T00:08:14.264Z,99.90
2018-08-09T00:10:42.005Z,99.90
2018-08-09T00:13:09.977Z,99.90
2018-08-09T00:15:37.720Z,99.90
2018-08-09T00:18:05.425Z,99.90
2018-08-09T00:20:33.242Z,99.90
2018-08-09T00:23:01.112Z,99.90
2018-08-09T00:25:28.877Z,99.90
2018-08-09T00:27:56.577Z,99.90
2018-08-09T00:30:24.389Z,99.90
2018-08-09T00:32:52.128Z,99.90
2018-08-09T00:35:19.870Z,99.90
2018-08-09T00:37:47.569Z,99.90
2018-08-09T00:40:15.279Z,99.90
2018-08-09T00:42:43.013Z,99.90
2018-08-09T00:45:10.766Z,99.90
2018-08-09T00:47:38.506Z,99.90
2018-08-09T00:50:06.245Z,99.90
2018-08-09T00:52:34.217Z,99.90
2018-08-09T00:55:02.145Z,99.90
2018-08-09T00:57:29.884Z,99.90
2018-08-09T00:59:57.619Z,99.90
2018-08-09T01:02:25.329Z,99.90
2018-08-09T01:04:53.080Z,99.90
2018-08-09T01:07:20.780Z,99.90
2018-08-09T01:09:48.505Z,99.90
2018-08-09T01:12:16.249Z,99.90
2018-08-09T01:14:43.969Z,99.90
2018-08-09T01:17:11.685Z,99.90
2018-08-09T01:19:39.441Z,99.90
2018-08-09T01:22:07.187Z,99.90
2018-08-09T01:24:34.901Z,99.90
2018-08-09T01:27:02.692Z,99.90
2018-08-09T01:29:30.410Z,99.90
2018-08-09T01:31:58.165Z,99.90
2018-08-09T01:34:25.864Z,99.90
2018-08-09T01:36:53.588Z,99.90
2018-08-09T01:39:21.314Z,99.90
2018-08-09T01:41:54.761Z,99.90
2018-08-09T01:44:22.474Z,99.90
2018-08-09T01:46:50.205Z,99.90
2018-08-09T01:49:17.929Z,99.90
2018-08-09T01:51:45.628Z,99.90
2018-08-09T01:54:13.342Z,99.90
2018-08-09T01:56:41.051Z,99.90
2018-08-09T01:59:08.765Z,99.90
2018-08-09T02:01:36.489Z,99.90
2018-08-09T02:04:04.229Z,99.90
2018-08-09T02:06:31.959Z,99.90
2018-08-09T02:09:04.930Z,99.90
2018-08-09T02:11:32.652Z,99.90
2018-08-09T02:14:00.380Z,99.90
2018-08-09T02:16:28.088Z,99.90
2018-08-09T02:18:55.809Z,99.90
2018-08-09T02:21:23.529Z,99.90
2018-08-09T02:23:51.261Z,99.90
2018-08-09T02:26:18.957Z,99.90
2018-08-09T02:28:46.689Z,99.90
2018-08-09T02:31:14.414Z,99.90
2018-08-09T02:33:42.116Z,99.90
2018-08-09T02:36:09.856Z,99.90
2018-08-09T02:38:37.565Z,99.90
2018-08-09T02:41:05.300Z,99.90
2018-08-09T02:43:33.021Z,99.90
2018-08-09T02:46:00.753Z,99.90
2018-08-09T02:48:28.466Z,99.90
2018-08-09T02:50:56.165Z,99.90
2018-08-09T02:53:23.881Z,99.90
2018-08-09T02:55:51.585Z,99.90
2018-08-09T02:58:19.305Z,99.90
2018-08-09T03:00:47.048Z,99.90
2018-08-09T03:03:14.784Z,99.90
2018-08-09T03:05:43.156Z,99.90
2018-08-09T03:08:10.891Z,99.90
2018-08-09T03:10:38.662Z,99.90
2018-08-09T03:13:06.474Z,99.90
2018-08-09T03:15:34.442Z,99.90
2018-08-09T03:18:02.161Z,99.90
2018-08-09T03:20:29.939Z,99.90
2018-08-09T03:22:57.669Z,99.90
2018-08-09T03:25:25.437Z,99.90
2018-08-09T03:27:53.201Z,99.90
2018-08-09T03:30:20.962Z,99.90
2018-08-09T03:32:48.849Z,99.90
2018-08-09T03:35:16.849Z,99.90
2018-08-09T03:37:44.688Z,99.90
2018-08-09T03:40:12.441Z,99.90
2018-08-09T03:42:40.202Z,99.90
2018-08-09T03:45:07.966Z,99.90
2018-08-09T03:47:35.718Z,99.90
2018-08-09T03:50:03.542Z,99.90
2018-08-09T03:52:31.279Z,99.90
2018-08-09T03:54:59.062Z,99.90
2018-08-09T03:57:26.786Z,99.90
2018-08-09T03:59:54.548Z,99.90
2018-08-09T04:02:22.282Z,99.90
2018-08-09T04:04:50.046Z,99.90
2018-08-09T04:07:17.782Z,99.90
2018-08-09T04:09:45.550Z,99.90
2018-08-09T04:12:13.301Z,99.90
2018-08-09T04:14:41.049Z,99.90
2018-08-09T04:17:13.165Z,99.90
2018-08-09T04:19:40.922Z,99.90
2018-08-09T04:22:08.662Z,99.90
2018-08-09T04:24:36.391Z,99.90
2018-08-09T04:27:04.144Z,99.90
2018-08-09T04:29:31.906Z,99.90
2018-08-09T04:31:59.653Z,99.90
2018-08-09T04:34:27.367Z,99.90
2018-08-09T04:36:55.134Z,99.90
2018-08-09T04:39:22.923Z,99.90
2018-08-09T04:41:50.686Z,99.90
2018-08-09T04:44:18.450Z,99.90
2018-08-09T04:46:46.798Z,99.90
2018-08-09T04:49:14.569Z,99.90
2018-08-09T04:51:42.314Z,99.90
2018-08-09T04:54:10.047Z,99.90
2018-08-09T04:56:37.793Z,99.90
2018-08-09T04:59:05.693Z,99.90
2018-08-09T05:01:33.435Z,99.90
2018-08-09T05:04:01.189Z,99.90
2018-08-09T05:06:28.934Z,99.90
2018-08-09T05:08:56.661Z,99.90
2018-08-09T05:11:24.458Z,99.90
2018-08-09T05:13:52.213Z,99.90
2018-08-09T05:16:19.978Z,99.90
2018-08-09T05:18:47.702Z,99.90
2018-08-09T05:21:15.445Z,99.90
2018-08-09T05:23:43.165Z,99.90
2018-08-09T05:26:10.914Z,99.90
2018-08-09T05:28:38.642Z,99.90
2018-08-09T05:31:06.398Z,99.90
2018-08-09T05:33:34.785Z,99.90
2018-08-09T05:36:02.566Z,99.90
2018-08-09T05:38:30.305Z,99.90
2018-08-09T05:40:58.051Z,99.90
2018-08-09T05:43:25.781Z,99.90
2018-08-09T05:45:53.546Z,99.90
2018-08-09T05:48:21.281Z,99.90
2018-08-09T05:50:49.010Z,99.90
2018-08-09T05:53:16.935Z,99.90
2018-08-09T05:55:44.698Z,99.90
2018-08-09T05:58:12.466Z,99.90
2018-08-09T06:00:40.185Z,99.90
2018-08-09T06:03:07.981Z,99.90
2018-08-09T06:05:35.720Z,99.90
2018-08-09T06:08:03.526Z,99.90
2018-08-09T06:10:31.322Z,99.90
2018-08-09T06:12:59.101Z,99.90
2018-08-09T06:15:26.969Z,99.90
2018-08-09T06:17:54.714Z,99.90
2018-08-09T06:20:22.454Z,99.90
2018-08-09T06:22:50.198Z,99.90
2018-08-09T06:25:17.949Z,99.90
2018-08-09T06:27:45.735Z,99.90
2018-08-09T06:30:13.480Z,99.90
2018-08-09T06:32:41.215Z,99.90
2018-08-09T06:35:10.330Z,99.90
2018-08-09T06:37:38.373Z,99.90
2018-08-09T06:40:07.902Z,99.90
2018-08-09T06:42:35.613Z,99.90
2018-08-09T06:45:03.434Z,99.90
2018-08-09T06:47:31.169Z,99.90
2018-08-09T06:49:58.909Z,99.90
2018-08-09T06:52:26.658Z,99.90
2018-08-09T06:54:54.454Z,99.90
2018-08-09T06:57:22.247Z,99.90
2018-08-09T06:59:49.981Z,99.90
2018-08-09T07:02:17.709Z,99.90
2018-08-09T07:04:45.454Z,99.90
2018-08-09T07:07:13.227Z,99.90
2018-08-09T07:09:40.972Z,99.90
2018-08-09T07:12:08.721Z,99.90
2018-08-09T07:14:36.469Z,99.90
2018-08-09T07:17:04.420Z,99.90
2018-08-09T07:19:32.417Z,99.90
2018-08-09T07:22:00.135Z,99.90
2018-08-09T07:24:28.042Z,99.90
2018-08-09T07:26:55.761Z,99.90
2018-08-09T07:29:23.509Z,99.90
2018-08-09T07:31:51.233Z,99.90
2018-08-09T07:34:18.979Z,99.90
2018-08-09T07:36:46.707Z,99.90
2018-08-09T07:39:14.483Z,99.90
2018-08-09T07:41:42.814Z,99.90
2018-08-09T07:44:10.582Z,99.90
2018-08-09T07:46:38.302Z,99.90
2018-08-09T07:49:06.062Z,99.90
2018-08-09T07:51:33.786Z,99.90
2018-08-09T07:54:01.531Z,99.90
2018-08-09T07:56:29.277Z,99.90
2018-08-09T07:58:56.993Z,99.90
2018-08-09T08:01:25.002Z,99.90
2018-08-09T08:03:52.737Z,99.90
2018-08-09T08:06:20.489Z,99.90
2018-08-09T08:08:48.218Z,99.90
2018-08-09T08:11:15.970Z,99.90
2018-08-09T08:13:43.742Z,99.90
2018-08-09T08:16:11.493Z,99.90
2018-08-09T08:18:39.213Z,99.90
2018-08-09T08:21:06.998Z,99.90
2018-08-09T08:23:34.725Z,99.90
2018-08-09T08:26:02.465Z,99.90
2018-08-09T08:28:30.178Z,99.90
2018-08-09T08:30:57.945Z,99.90
2018-08-09T08:33:25.680Z,99.90
2018-08-09T08:35:53.582Z,99.90
2018-08-09T08:38:21.373Z,99.90
2018-08-09T08:40:49.199Z,99.90
2018-08-09T08:43:16.966Z,99.90
2018-08-09T08:45:44.721Z,99.90
2018-08-09T08:48:12.466Z,98.70
2018-08-09T08:50:40.209Z,98.80
2018-08-09T08:53:07.971Z,98.20
2018-08-09T08:55:35.711Z,99.90
2018-08-09T08:58:03.449Z,98.60
2018-08-09T09:00:31.202Z,98.40
2018-08-09T09:02:58.924Z,98.60
2018-08-09T09:05:26.686Z,97.10
2018-08-09T09:07:54.437Z,97.00
2018-08-09T09:10:22.185Z,97.50
2018-08-09T09:12:49.953Z,98.00
2018-08-09T09:15:17.701Z,95.70
2018-08-09T09:17:45.530Z,95.20
2018-08-09T09:20:15.639Z,95.50
2018-08-09T09:22:43.794Z,95.30
2018-08-09T09:25:11.920Z,95.70
2018-08-09T09:27:39.662Z,95.80
2018-08-09T09:30:08.450Z,95.10
2018-08-09T09:32:36.187Z,92.80
2018-08-09T09:35:03.989Z,94.90
2018-08-09T09:37:31.762Z,93.60
2018-08-09T09:39:59.498Z,94.00
2018-08-09T09:42:27.271Z,93.40
2018-08-09T09:44:55.026Z,96.30
2018-08-09T09:47:22.789Z,93.40
2018-08-09T09:49:50.551Z,93.00
2018-08-09T09:52:18.441Z,92.20
2018-08-09T09:54:46.278Z,92.10
2018-08-09T09:57:14.022Z,90.60
2018-08-09T09:59:41.806Z,91.90
2018-08-09T10:02:09.606Z,86.80
2018-08-09T10:04:37.329Z,89.30
2018-08-09T10:07:05.288Z,87.70
2018-08-09T10:09:32.998Z,89.40
2018-08-09T10:12:00.790Z,82.60
2018-08-09T10:14:28.518Z,80.80
2018-08-09T10:16:56.261Z,83.50
2018-08-09T10:19:23.977Z,82.20
2018-08-09T10:21:51.727Z,84.70
2018-08-09T10:24:19.445Z,83.80
2018-08-09T10:26:47.198Z,85.60
2018-08-09T10:29:14.918Z,85.50
2018-08-09T10:31:42.754Z,88.20
2018-08-09T10:34:10.485Z,85.80
2018-08-09T10:36:38.253Z,86.70
2018-08-09T10:39:08.200Z,90.10
2018-08-09T10:41:35.966Z,87.60
2018-08-09T10:44:04.014Z,86.40
2018-08-09T10:46:31.773Z,86.70
2018-08-09T10:48:59.502Z,85.00
2018-08-09T10:51:27.241Z,83.80
2018-08-09T10:53:54.997Z,83.70
2018-08-09T10:56:22.849Z,83.20
2018-08-09T10:58:50.802Z,86.10
2018-08-09T11:01:18.522Z,82.40
2018-08-09T11:03:46.332Z,84.00
2018-08-09T11:06:14.068Z,82.00
2018-08-09T11:08:41.882Z,81.50
2018-08-09T11:11:11.438Z,81.60
2018-08-09T11:13:39.840Z,83.40
2018-08-09T11:16:07.782Z,85.20
2018-08-09T11:18:35.525Z,88.00
2018-08-09T11:21:03.283Z,77.50
2018-08-09T11:23:31.306Z,78.80
2018-08-09T11:25:59.346Z,76.80
2018-08-09T11:28:27.093Z,78.10
2018-08-09T11:30:55.193Z,77.00
2018-08-09T11:33:23.489Z,74.20
2018-08-09T11:35:51.222Z,74.30
2018-08-09T11:38:18.974Z,78.60
2018-08-09T11:40:46.704Z,79.50
2018-08-09T11:43:14.462Z,79.20
2018-08-09T11:45:42.202Z,77.50
2018-08-09T11:48:09.953Z,77.90
2018-08-09T11:50:37.667Z,78.50
2018-08-09T11:53:05.413Z,77.30
2018-08-09T11:55:33.642Z,78.60
2018-08-09T11:58:01.526Z,82.00
2018-08-09T12:00:29.255Z,89.50
2018-08-09T12:02:57.497Z,99.90
2018-08-09T12:05:25.279Z,99.90
2018-08-09T12:07:53.025Z,99.90
2018-08-09T12:10:20.789Z,99.90
2018-08-09T12:12:48.565Z,99.90
2018-08-09T12:15:16.352Z,99.90
2018-08-09T12:17:44.071Z,99.90
2018-08-09T12:20:11.842Z,99.90
2018-08-09T12:22:39.621Z,99.90
2018-08-09T12:25:07.346Z,99.90
2018-08-09T12:27:35.549Z,99.90
2018-08-09T12:30:03.374Z,99.90
2018-08-09T12:32:31.106Z,99.90
2018-08-09T12:34:58.907Z,99.90
2018-08-09T12:37:26.849Z,99.90
2018-08-09T12:39:54.612Z,99.90
2018-08-09T12:42:22.381Z,99.90
2018-08-09T12:44:50.143Z,99.90
2018-08-09T12:47:17.878Z,99.90
2018-08-09T12:49:45.637Z,99.90
2018-08-09T12:52:13.370Z,99.90
2018-08-09T12:54:41.125Z,99.90
2018-08-09T12:57:08.846Z,99.90
2018-08-09T12:59:36.601Z,99.90
2018-08-09T13:02:04.374Z,99.90
2018-08-09T13:04:32.130Z,99.90
2018-08-09T13:06:59.869Z,99.90
2018-08-09T13:09:27.630Z,99.90
2018-08-09T13:11:55.441Z,99.90
2018-08-09T13:14:23.211Z,99.90
2018-08-09T13:16:50.988Z,99.90
2018-08-09T13:19:18.762Z,99.90
2018-08-09T13:21:46.478Z,99.00
2018-08-09T13:24:14.359Z,97.10
2018-08-09T13:26:42.143Z,94.10
2018-08-09T13:29:09.901Z,96.20
2018-08-09T13:31:37.711Z,95.90
2018-08-09T13:34:05.514Z,94.50
2018-08-09T13:36:33.289Z,90.60
2018-08-09T13:39:01.025Z,90.50
2018-08-09T13:41:28.786Z,92.00
2018-08-09T13:43:56.555Z,91.30
2018-08-09T13:46:24.334Z,90.30
2018-08-09T13:48:52.115Z,89.70
2018-08-09T13:51:19.917Z,91.40
2018-08-09T13:53:47.662Z,93.30
2018-08-09T13:56:15.437Z,92.50
2018-08-09T13:58:43.168Z,94.10
2018-08-09T14:01:10.926Z,93.20
2018-08-09T14:03:38.700Z,93.20
2018-08-09T14:06:06.502Z,93.80
2018-08-09T14:08:34.250Z,93.60
2018-08-09T14:11:02.952Z,94.30
2018-08-09T14:13:30.758Z,94.80
2018-08-09T14:15:58.526Z,97.20
2018-08-09T14:18:26.268Z,96.40
2018-08-09T14:20:54.130Z,95.50
2018-08-09T14:23:21.856Z,95.70
2018-08-09T14:25:49.658Z,96.40
2018-08-09T14:28:17.417Z,96.10
2018-08-09T14:30:45.175Z,95.80
2018-08-09T14:33:12.928Z,95.90
2018-08-09T14:35:40.725Z,94.90
2018-08-09T14:38:08.474Z,94.20
2018-08-09T14:40:36.258Z,94.00
2018-08-09T14:43:04.083Z,94.10
2018-08-09T14:45:31.862Z,94.90
2018-08-09T14:47:59.616Z,95.30
2018-08-09T14:50:27.391Z,95.30
2018-08-09T14:52:55.153Z,99.00
2018-08-09T14:55:22.914Z,96.80
2018-08-09T14:57:50.670Z,98.00
2018-08-09T15:00:19.359Z,98.40
2018-08-09T15:02:47.545Z,99.90
2018-08-09T15:05:16.005Z,99.20
2018-08-09T15:07:44.576Z,99.90
2018-08-09T15:10:12.713Z,99.20
2018-08-09T15:12:41.256Z,99.90
2018-08-09T15:15:10.022Z,99.40
2018-08-09T15:17:37.805Z,99.70
2018-08-09T15:20:06.478Z,98.80
2018-08-09T15:22:34.315Z,99.70
2018-08-09T15:25:02.058Z,99.90
2018-08-09T15:27:29.825Z,99.90
2018-08-09T15:29:57.604Z,99.90
2018-08-09T15:32:25.414Z,99.90
2018-08-09T15:34:53.190Z,99.90
2018-08-09T15:37:20.970Z,99.90
2018-08-09T15:39:48.702Z,99.90
2018-08-09T15:42:16.454Z,99.90
2018-08-09T15:44:44.175Z,99.90
2018-08-09T15:47:11.951Z,99.90
2018-08-09T15:49:39.673Z,99.90
2018-08-09T15:52:07.562Z,99.90
2018-08-09T15:54:35.316Z,99.90
2018-08-09T15:57:03.970Z,99.90
2018-08-09T15:59:32.729Z,99.90
2018-08-09T16:02:00.494Z,99.90
2018-08-09T16:04:29.549Z,99.90
2018-08-09T16:06:57.749Z,99.90
2018-08-09T16:09:25.568Z,99.90
2018-08-09T16:11:55.778Z,99.90
2018-08-09T16:14:24.760Z,99.90
2018-08-09T16:16:52.566Z,99.90
2018-08-09T16:19:20.763Z,99.90
2018-08-09T16:21:49.834Z,99.90
2018-08-09T16:24:18.962Z,99.90
2018-08-09T16:26:48.314Z,99.70
2018-08-09T16:29:17.403Z,99.90
2018-08-09T16:31:48.688Z,99.40
2018-08-09T16:34:16.869Z,99.70
2018-08-09T16:36:45.348Z,99.20
2018-08-09T16:39:14.589Z,99.70
2018-08-09T16:41:43.381Z,99.30
2018-08-09T16:44:11.854Z,98.30
2018-08-09T16:46:40.965Z,98.40
2018-08-09T16:49:08.734Z,98.80
2018-08-09T16:51:36.658Z,98.30
2018-08-09T16:54:04.550Z,98.50
2018-08-09T16:56:32.416Z,98.90
2018-08-09T16:59:00.177Z,99.00
2018-08-09T17:01:29.282Z,99.20
2018-08-09T17:03:58.081Z,98.80
2018-08-09T17:06:27.685Z,98.60
2018-08-09T17:08:58.120Z,98.40
2018-08-09T17:11:27.093Z,97.70
2018-08-09T17:13:57.155Z,97.90
2018-08-09T17:16:26.640Z,97.60
2018-08-09T17:18:55.557Z,97.20
2018-08-09T17:21:24.448Z,97.20
2018-08-09T17:23:53.522Z,97.50
2018-08-09T17:26:23.103Z,97.50
2018-08-09T17:28:51.355Z,97.70
2018-08-09T17:31:19.562Z,97.70
2018-08-09T17:33:48.716Z,98.10
2018-08-09T17:36:17.693Z,98.50
2018-08-09T17:38:47.081Z,98.60
2018-08-09T17:41:16.247Z,98.70
2018-08-09T17:43:45.075Z,99.40
2018-08-09T17:46:13.812Z,99.50
2018-08-09T17:48:42.369Z,99.70
2018-08-09T17:51:10.678Z,99.90
2018-08-09T17:53:42.295Z,99.90
2018-08-09T17:56:10.406Z,99.90
2018-08-09T17:58:38.909Z,99.90
2018-08-09T18:01:09.367Z,99.90
2018-08-09T18:03:39.413Z,99.90
2018-08-09T18:06:07.645Z,99.90
2018-08-09T18:08:36.044Z,99.90
2018-08-09T18:11:05.988Z,99.90
2018-08-09T18:13:33.790Z,99.90
2018-08-09T18:16:01.534Z,99.90
2018-08-09T18:18:29.318Z,99.90
2018-08-09T18:20:58.205Z,99.90
2018-08-09T18:23:27.759Z,99.90
2018-08-09T18:25:57.259Z,99.90
2018-08-09T18:28:26.496Z,99.90
2018-08-09T18:30:54.849Z,99.90
2018-08-09T18:33:23.700Z,99.90
2018-08-09T18:35:51.682Z,99.90
2018-08-09T18:38:21.255Z,99.90
2018-08-09T18:40:49.101Z,99.90
2018-08-09T18:43:45.432Z,99.90
2018-08-09T18:46:13.171Z,99.90
2018-08-09T18:48:40.914Z,99.90
2018-08-09T18:51:08.970Z,99.90
2018-08-09T18:53:37.165Z,99.90
2018-08-09T18:56:05.959Z,99.90
2018-08-09T18:58:34.937Z,99.90
2018-08-09T19:01:04.214Z,99.90
2018-08-09T19:03:31.989Z,99.90
2018-08-09T19:06:01.320Z,99.90
2018-08-09T19:08:29.969Z,99.90
2018-08-09T19:10:59.884Z,99.90
2018-08-09T19:13:29.215Z,99.90
2018-08-09T19:15:57.789Z,99.90
2018-08-09T19:18:27.094Z,99.90
2018-08-09T19:20:56.422Z,99.90
2018-08-09T19:23:24.985Z,99.90
2018-08-09T19:25:53.750Z,99.90
2018-08-09T19:28:22.406Z,99.90
2018-08-09T19:30:51.338Z,99.90
2018-08-09T19:33:21.648Z,99.90
2018-08-09T19:35:50.752Z,99.90
2018-08-09T19:38:19.794Z,99.90
2018-08-09T19:40:48.549Z,99.90
2018-08-09T19:43:16.683Z,99.90
2018-08-09T19:45:45.976Z,99.90
2018-08-09T19:48:13.766Z,99.90
2018-08-09T19:50:42.792Z,99.90
2018-08-09T19:53:11.530Z,99.90
2018-08-09T19:55:40.121Z,99.90
2018-08-09T19:58:09.486Z,99.90
2018-08-09T20:00:38.385Z,99.90
2018-08-09T20:03:07.314Z,99.90
2018-08-09T20:05:35.081Z,99.90
2018-08-09T20:08:04.061Z,99.90
2018-08-09T20:10:32.531Z,99.90
2018-08-09T20:13:01.904Z,99.90
2018-08-09T20:15:32.562Z,99.90
2018-08-09T20:18:00.398Z,99.90
2018-08-09T20:20:28.930Z,99.90
2018-08-09T20:22:58.233Z,99.90
2018-08-09T20:25:27.629Z,99.90
2018-08-09T20:27:57.036Z,99.90
2018-08-09T20:30:26.429Z,99.90
2018-08-09T20:32:55.204Z,99.90
2018-08-09T20:35:24.910Z,99.90
2018-08-09T20:37:53.596Z,99.90
2018-08-09T20:40:23.716Z,99.90
2018-08-09T20:42:53.763Z,99.90
2018-08-09T20:45:22.649Z,99.90
2018-08-09T20:47:52.242Z,99.90
2018-08-09T20:50:22.690Z,99.90
2018-08-09T20:52:50.991Z,99.90
2018-08-09T20:55:18.741Z,99.90
2018-08-09T20:57:47.226Z,99.90
2018-08-09T21:00:17.109Z,99.90
2018-08-09T21:02:45.929Z,99.90
2018-08-09T21:05:18.184Z,99.90
2018-08-09T21:07:45.966Z,99.90
2018-08-09T21:10:14.065Z,99.90
2018-08-09T21:12:41.954Z,99.90
2018-08-09T21:15:09.736Z,99.90
2018-08-09T21:17:37.518Z,99.90
2018-08-09T21:20:05.786Z,99.90
2018-08-09T21:22:33.530Z,99.90
2018-08-09T21:25:01.383Z,99.90
2018-08-09T21:27:29.909Z,99.90
2018-08-09T21:29:57.649Z,99.90
2018-08-09T21:32:25.472Z,99.90
2018-08-09T21:34:53.191Z,99.90
2018-08-09T21:37:22.277Z,99.90
2018-08-09T21:39:51.220Z,99.90
2018-08-09T21:42:19.416Z,99.90
2018-08-09T21:44:48.485Z,99.90
2018-08-09T21:47:16.242Z,99.90
2018-08-09T21:49:44.004Z,99.90
2018-08-09T21:52:11.842Z,99.90
2018-08-09T21:54:40.213Z,99.90
2018-08-09T21:57:08.006Z,99.90
2018-08-09T21:59:35.781Z,99.90
2018-08-09T22:02:03.565Z,99.90
2018-08-09T22:04:31.366Z,99.90
2018-08-09T22:07:04.630Z,99.90
2018-08-09T22:09:38.299Z,99.90
2018-08-09T22:12:11.514Z,99.90
2018-08-09T22:14:44.706Z,99.90
2018-08-09T22:17:17.998Z,99.90
2018-08-09T22:19:51.290Z,99.90
2018-08-09T22:22:23.097Z,99.90
2018-08-09T22:24:50.981Z,99.90
2018-08-09T22:27:18.774Z,99.90
2018-08-09T22:29:46.530Z,99.90
2018-08-09T22:32:14.257Z,99.90
2018-08-09T22:34:41.998Z,99.90
2018-08-09T22:37:09.714Z,99.90
2018-08-09T22:39:37.494Z,99.90
2018-08-09T22:42:05.254Z,99.90
2018-08-09T22:44:33.017Z,99.90
2018-08-09T22:47:00.765Z,99.90
2018-08-09T22:49:28.522Z,99.90
2018-08-09T22:51:56.294Z,99.90
2018-08-09T22:54:24.094Z,99.90
2018-08-09T22:56:51.830Z,99.90
2018-08-09T22:59:19.874Z,99.90
2018-08-09T23:01:47.602Z,99.90
2018-08-09T23:04:15.603Z,99.90
2018-08-09T23:06:43.356Z,99.90
2018-08-09T23:09:11.534Z,99.90
2018-08-09T23:11:39.491Z,99.90
2018-08-09T23:14:07.317Z,99.90
2018-08-09T23:16:35.053Z,99.90
2018-08-09T23:19:02.850Z,99.90
2018-08-09T23:21:30.654Z,99.90
2018-08-09T23:23:58.435Z,99.90
2018-08-09T23:26:26.166Z,99.90
2018-08-09T23:28:53.930Z,99.90
2018-08-09T23:31:21.666Z,99.90
2018-08-09T23:33:49.429Z,99.90
2018-08-09T23:36:17.159Z,99.90
2018-08-09T23:38:44.963Z,99.90
2018-08-09T23:41:12.727Z,99.90
2018-08-09T23:43:40.478Z,99.90
2018-08-09T23:46:08.254Z,99.90
2018-08-09T23:48:36.042Z,99.90
2018-08-09T23:51:03.834Z,99.90
2018-08-09T23:53:31.558Z,99.90
2018-08-09T23:55:59.305Z,99.90
2018-08-09T23:58:27.062Z,99.90
